sensor_id;sensor_type;location;lat;lon;timestamp;pressure;altitude;pressure_sealevel;temperature;humidity
77739;BME280;66904;59.926;30.404;2023-03-14T00:04:04;98974.28;;;25.71;23.37
77739;BME280;66904;59.926;30.404;2023-03-14T00:09:35;98955.03;;;25.73;23.09
77739;BME280;66904;59.926;30.404;2023-03-14T00:14:56;98946.06;;;25.67;22.97
77739;BME280;66904;59.926;30.404;2023-03-14T00:20:27;98926.28;;;25.66;23.38
77739;BME280;66904;59.926;30.404;2023-03-14T00:31:33;98882.41;;;25.69;23.24
77739;BME280;66904;59.926;30.404;2023-03-14T00:36:35;98873.47;;;25.69;22.99
77739;BME280;66904;59.926;30.404;2023-03-14T00:41:36;98860.50;;;25.71;22.78
77739;BME280;66904;59.926;30.404;2023-03-14T00:46:36;98839.13;;;25.75;22.93
77739;BME280;66904;59.926;30.404;2023-03-14T00:57:23;98797.97;;;25.78;22.45
77739;BME280;66904;59.926;30.404;2023-03-14T01:14:22;98755.75;;;25.82;22.86
77739;BME280;66904;59.926;30.404;2023-03-14T01:19:53;98746.22;;;25.74;22.87
77739;BME280;66904;59.926;30.404;2023-03-14T01:25:26;98723.75;;;25.79;22.82
77739;BME280;66904;59.926;30.404;2023-03-14T01:30:26;98709.13;;;25.80;22.38
77739;BME280;66904;59.926;30.404;2023-03-14T01:47:32;98666.91;;;25.84;22.71
77739;BME280;66904;59.926;30.404;2023-03-14T01:59:11;98639.25;;;25.82;22.69
77739;BME280;66904;59.926;30.404;2023-03-14T02:15:40;98577.19;;;25.75;22.59
77739;BME280;66904;59.926;30.404;2023-03-14T02:38:15;98543.00;;;25.69;22.60
77739;BME280;66904;59.926;30.404;2023-03-14T02:43:18;98522.16;;;25.64;22.24
77739;BME280;66904;59.926;30.404;2023-03-14T02:48:31;98541.13;;;25.69;22.14
77739;BME280;66904;59.926;30.404;2023-03-14T03:11:28;98510.56;;;25.74;22.19
77739;BME280;66904;59.926;30.404;2023-03-14T03:16:40;98501.59;;;25.74;22.29
77739;BME280;66904;59.926;30.404;2023-03-14T03:21:59;98489.94;;;25.73;22.21
77739;BME280;66904;59.926;30.404;2023-03-14T03:27:40;98477.75;;;25.76;22.68
77739;BME280;66904;59.926;30.404;2023-03-14T03:33:05;98469.09;;;25.74;22.18
77739;BME280;66904;59.926;30.404;2023-03-14T03:43:37;98453.13;;;25.77;22.48
77739;BME280;66904;59.926;30.404;2023-03-14T03:48:37;98444.47;;;25.75;22.40
77739;BME280;66904;59.926;30.404;2023-03-14T03:53:38;98446.34;;;25.75;22.64
77739;BME280;66904;59.926;30.404;2023-03-14T03:58:38;98443.38;;;25.71;22.44
77739;BME280;66904;59.926;30.404;2023-03-14T04:03:39;98443.91;;;25.73;22.52
77739;BME280;66904;59.926;30.404;2023-03-14T04:08:40;98456.38;;;25.74;22.59
77739;BME280;66904;59.926;30.404;2023-03-14T04:13:41;98426.28;;;25.70;23.07
77739;BME280;66904;59.926;30.404;2023-03-14T04:18:42;98441.16;;;25.63;24.02
77739;BME280;66904;59.926;30.404;2023-03-14T04:23:42;98430.31;;;25.63;23.67
77739;BME280;66904;59.926;30.404;2023-03-14T04:28:43;98435.50;;;25.64;24.12
77739;BME280;66904;59.926;30.404;2023-03-14T04:33:44;98417.09;;;25.72;24.74
77739;BME280;66904;59.926;30.404;2023-03-14T04:38:44;98404.94;;;25.84;24.40
77739;BME280;66904;59.926;30.404;2023-03-14T04:43:45;98397.63;;;25.95;25.19
77739;BME280;66904;59.926;30.404;2023-03-14T04:48:45;98410.38;;;26.04;24.89
77739;BME280;66904;59.926;30.404;2023-03-14T04:53:46;98396.28;;;26.12;25.01
77739;BME280;66904;59.926;30.404;2023-03-14T04:58:46;98393.56;;;26.07;25.00
77739;BME280;66904;59.926;30.404;2023-03-14T05:03:47;98394.13;;;26.04;25.12
77739;BME280;66904;59.926;30.404;2023-03-14T05:08:47;98392.75;;;25.92;24.73
77739;BME280;66904;59.926;30.404;2023-03-14T05:13:48;98388.41;;;25.81;24.60
77739;BME280;66904;59.926;30.404;2023-03-14T05:18:48;98382.16;;;25.75;24.82
77739;BME280;66904;59.926;30.404;2023-03-14T05:23:49;98383.78;;;25.76;24.92
77739;BME280;66904;59.926;30.404;2023-03-14T05:28:49;98385.94;;;25.79;24.94
77739;BME280;66904;59.926;30.404;2023-03-14T05:33:50;98384.06;;;25.80;25.29
77739;BME280;66904;59.926;30.404;2023-03-14T05:38:50;98377.00;;;25.79;24.91
77739;BME280;66904;59.926;30.404;2023-03-14T05:43:51;98365.09;;;25.80;24.92
77739;BME280;66904;59.926;30.404;2023-03-14T05:48:51;98377.56;;;25.81;24.94
77739;BME280;66904;59.926;30.404;2023-03-14T05:53:52;98369.44;;;25.81;25.13
77739;BME280;66904;59.926;30.404;2023-03-14T05:58:52;98369.16;;;25.77;25.45
77739;BME280;66904;59.926;30.404;2023-03-14T06:03:53;98382.69;;;25.77;25.58
77739;BME280;66904;59.926;30.404;2023-03-14T06:08:53;98375.13;;;25.74;25.32
77739;BME280;66904;59.926;30.404;2023-03-14T06:13:54;98372.13;;;25.70;25.67
77739;BME280;66904;59.926;30.404;2023-03-14T06:18:54;98365.06;;;25.69;25.55
77739;BME280;66904;59.926;30.404;2023-03-14T06:23:55;98361.84;;;25.67;25.76
77739;BME280;66904;59.926;30.404;2023-03-14T06:28:56;98368.59;;;25.65;25.99
77739;BME280;66904;59.926;30.404;2023-03-14T06:33:56;98365.34;;;25.63;26.06
77739;BME280;66904;59.926;30.404;2023-03-14T06:38:57;98372.09;;;25.60;25.82
77739;BME280;66904;59.926;30.404;2023-03-14T06:43:58;98368.59;;;25.60;26.03
77739;BME280;66904;59.926;30.404;2023-03-14T06:48:58;98380.19;;;25.55;26.00
77739;BME280;66904;59.926;30.404;2023-03-14T06:53:59;98395.38;;;25.56;26.20
77739;BME280;66904;59.926;30.404;2023-03-14T06:58:59;98387.25;;;25.56;26.08
77739;BME280;66904;59.926;30.404;2023-03-14T07:04:00;98404.56;;;25.55;26.17
77739;BME280;66904;59.926;30.404;2023-03-14T07:09:01;98412.97;;;25.54;26.52
77739;BME280;66904;59.926;30.404;2023-03-14T07:14:02;98406.50;;;25.55;26.12
77739;BME280;66904;59.926;30.404;2023-03-14T07:19:03;98415.94;;;25.52;26.72
77739;BME280;66904;59.926;30.404;2023-03-14T07:24:05;98425.97;;;25.52;26.37
77739;BME280;66904;59.926;30.404;2023-03-14T07:29:05;98439.53;;;25.52;26.03
77739;BME280;66904;59.926;30.404;2023-03-14T07:34:06;98444.66;;;25.53;26.43
77739;BME280;66904;59.926;30.404;2023-03-14T07:39:06;98442.47;;;25.55;26.37
77739;BME280;66904;59.926;30.404;2023-03-14T07:44:07;98435.72;;;25.53;26.49
77739;BME280;66904;59.926;30.404;2023-03-14T07:49:08;98437.88;;;25.56;26.79
77739;BME280;66904;59.926;30.404;2023-03-14T07:54:08;98443.84;;;25.53;26.98
77739;BME280;66904;59.926;30.404;2023-03-14T07:59:09;98441.94;;;25.53;27.09
77739;BME280;66904;59.926;30.404;2023-03-14T08:04:09;98452.78;;;25.53;26.95
77739;BME280;66904;59.926;30.404;2023-03-14T08:09:10;98461.44;;;25.55;27.02
77739;BME280;66904;59.926;30.404;2023-03-14T08:14:11;98458.22;;;25.58;26.86
77739;BME280;66904;59.926;30.404;2023-03-14T08:19:11;98461.47;;;25.60;27.08
77739;BME280;66904;59.926;30.404;2023-03-14T08:24:12;98477.72;;;25.60;26.98
77739;BME280;66904;59.926;30.404;2023-03-14T08:29:12;98459.59;;;25.61;27.08
77739;BME280;66904;59.926;30.404;2023-03-14T08:34:13;98459.59;;;25.61;27.12
77739;BME280;66904;59.926;30.404;2023-03-14T08:39:13;98456.31;;;25.59;26.81
77739;BME280;66904;59.926;30.404;2023-03-14T08:44:14;98480.69;;;25.59;26.78
77739;BME280;66904;59.926;30.404;2023-03-14T08:49:14;98474.47;;;25.58;26.86
77739;BME280;66904;59.926;30.404;2023-03-14T08:54:15;98459.84;;;25.59;27.21
77739;BME280;66904;59.926;30.404;2023-03-14T08:59:15;98472.84;;;25.57;26.90
77739;BME280;66904;59.926;30.404;2023-03-14T09:04:16;98502.34;;;25.54;27.40
77739;BME280;66904;59.926;30.404;2023-03-14T09:09:17;98499.09;;;25.57;27.76
77739;BME280;66904;59.926;30.404;2023-03-14T09:14:17;98507.50;;;25.60;28.04
77739;BME280;66904;59.926;30.404;2023-03-14T09:19:23;98521.63;;;25.67;27.81
77739;BME280;66904;59.926;30.404;2023-03-14T09:24:27;98521.38;;;25.79;28.69
77739;BME280;66904;59.926;30.404;2023-03-14T09:29:27;98521.16;;;25.96;28.16
77739;BME280;66904;59.926;30.404;2023-03-14T09:34:28;98549.66;;;26.03;28.49
77739;BME280;66904;59.926;30.404;2023-03-14T09:39:29;98539.63;;;26.09;28.09
77739;BME280;66904;59.926;30.404;2023-03-14T09:44:32;98545.34;;;26.12;28.77
77739;BME280;66904;59.926;30.404;2023-03-14T09:49:44;98553.25;;;26.19;29.04
77739;BME280;66904;59.926;30.404;2023-03-14T09:54:50;98557.34;;;26.22;28.62
77739;BME280;66904;59.926;30.404;2023-03-14T09:59:56;98557.34;;;26.22;28.55
77739;BME280;66904;59.926;30.404;2023-03-14T10:04:57;98558.69;;;26.24;28.01
77739;BME280;66904;59.926;30.404;2023-03-14T10:09:59;98566.81;;;26.29;28.59
77739;BME280;66904;59.926;30.404;2023-03-14T10:15:07;98576.31;;;26.32;28.74
77739;BME280;66904;59.926;30.404;2023-03-14T10:20:42;98563.31;;;26.34;28.95
77739;BME280;66904;59.926;30.404;2023-03-14T10:30:58;98594.47;;;26.26;28.84
77739;BME280;66904;59.926;30.404;2023-03-14T10:36:00;98599.66;;;26.28;28.26
77739;BME280;66904;59.926;30.404;2023-03-14T10:41:01;98607.75;;;26.23;28.04
77739;BME280;66904;59.926;30.404;2023-03-14T10:46:14;98598.78;;;26.22;27.92
77739;BME280;66904;59.926;30.404;2023-03-14T10:56:21;98600.69;;;26.16;27.94
77739;BME280;66904;59.926;30.404;2023-03-14T11:11:47;98608.50;;;26.08;27.65
77739;BME280;66904;59.926;30.404;2023-03-14T11:17:15;98606.56;;;26.08;27.95
77739;BME280;66904;59.926;30.404;2023-03-14T11:22:24;98628.25;;;26.03;27.98
77739;BME280;66904;59.926;30.404;2023-03-14T11:27:45;98629.66;;;26.11;29.23
77739;BME280;66904;59.926;30.404;2023-03-14T11:33:02;98640.00;;;26.19;29.13
77739;BME280;66904;59.926;30.404;2023-03-14T11:43:33;98644.09;;;26.27;29.03
77739;BME280;66904;59.926;30.404;2023-03-14T11:59:29;98660.22;;;26.01;28.40
77739;BME280;66904;59.926;30.404;2023-03-14T12:10:10;98685.03;;;25.83;27.83
77739;BME280;66904;59.926;30.404;2023-03-14T12:15:20;98688.81;;;25.82;27.81
77739;BME280;66904;59.926;30.404;2023-03-14T12:20:25;98686.69;;;25.84;28.31
77739;BME280;66904;59.926;30.404;2023-03-14T12:25:28;98693.75;;;25.85;28.05
77739;BME280;66904;59.926;30.404;2023-03-14T12:40:59;98693.75;;;25.90;27.46
77739;BME280;66904;59.926;30.404;2023-03-14T12:51:18;98723.84;;;25.94;28.29
77739;BME280;66904;59.926;30.404;2023-03-14T13:02:24;98730.63;;;25.96;28.29
77739;BME280;66904;59.926;30.404;2023-03-14T13:18:32;98731.44;;;25.92;28.74
77739;BME280;66904;59.926;30.404;2023-03-14T13:23:36;98737.41;;;25.94;28.89
77739;BME280;66904;59.926;30.404;2023-03-14T13:28:37;98732.00;;;25.94;28.52
77739;BME280;66904;59.926;30.404;2023-03-14T13:33:40;98742.31;;;25.97;28.83
77739;BME280;66904;59.926;30.404;2023-03-14T13:38:41;98753.38;;;25.95;28.71
77739;BME280;66904;59.926;30.404;2023-03-14T13:43:43;98755.31;;;25.95;28.42
77739;BME280;66904;59.926;30.404;2023-03-14T13:48:47;98759.63;;;25.96;29.07
77739;BME280;66904;59.926;30.404;2023-03-14T13:53:50;98774.06;;;26.01;29.04
77739;BME280;66904;59.926;30.404;2023-03-14T13:58:51;98780.84;;;26.04;28.91
77739;BME280;66904;59.926;30.404;2023-03-14T14:03:55;98804.69;;;26.07;29.14
77739;BME280;66904;59.926;30.404;2023-03-14T14:08:59;98799.00;;;26.08;28.99
77739;BME280;66904;59.926;30.404;2023-03-14T14:14:01;98787.06;;;26.04;28.46
77739;BME280;66904;59.926;30.404;2023-03-14T14:19:02;98801.69;;;26.03;28.83
77739;BME280;66904;59.926;30.404;2023-03-14T14:24:03;98809.81;;;26.03;28.77
77739;BME280;66904;59.926;30.404;2023-03-14T14:29:05;98816.88;;;26.04;29.36
77739;BME280;66904;59.926;30.404;2023-03-14T14:34:18;98809.81;;;26.03;29.79
77739;BME280;66904;59.926;30.404;2023-03-14T14:39:28;98807.66;;;26.05;29.53
77739;BME280;66904;59.926;30.404;2023-03-14T14:50:33;98823.69;;;26.07;28.72
77739;BME280;66904;59.926;30.404;2023-03-14T15:01:22;98824.00;;;26.15;28.65
77739;BME280;66904;59.926;30.404;2023-03-14T15:06:24;98832.41;;;26.14;28.53
77739;BME280;66904;59.926;30.404;2023-03-14T15:17:18;98848.47;;;26.20;28.65
77739;BME280;66904;59.926;30.404;2023-03-14T15:22:37;98835.44;;;26.17;28.12
77739;BME280;66904;59.926;30.404;2023-03-14T15:27:37;98849.81;;;26.18;28.11
77739;BME280;66904;59.926;30.404;2023-03-14T15:32:42;98847.34;;;26.16;28.06
77739;BME280;66904;59.926;30.404;2023-03-14T15:37:43;98854.97;;;26.19;28.52
77739;BME280;66904;59.926;30.404;2023-03-14T15:42:44;98866.38;;;26.22;28.11
77739;BME280;66904;59.926;30.404;2023-03-14T15:47:45;98872.91;;;26.26;28.16
77739;BME280;66904;59.926;30.404;2023-03-14T15:52:46;98884.56;;;26.26;28.33
77739;BME280;66904;59.926;30.404;2023-03-14T15:57:46;98890.25;;;26.25;28.36
77739;BME280;66904;59.926;30.404;2023-03-14T16:02:48;98889.75;;;26.28;29.75
77739;BME280;66904;59.926;30.404;2023-03-14T16:07:48;98897.59;;;26.29;29.95
77739;BME280;66904;59.926;30.404;2023-03-14T16:12:49;98916.84;;;26.28;30.54
77739;BME280;66904;59.926;30.404;2023-03-14T16:17:53;98946.97;;;26.31;31.79
77739;BME280;66904;59.926;30.404;2023-03-14T16:22:54;98962.97;;;26.33;30.68
77739;BME280;66904;59.926;30.404;2023-03-14T16:27:54;98962.44;;;26.31;31.03
77739;BME280;66904;59.926;30.404;2023-03-14T16:32:56;98971.38;;;26.31;31.07
77739;BME280;66904;59.926;30.404;2023-03-14T16:38:01;98972.69;;;26.29;30.84
77739;BME280;66904;59.926;30.404;2023-03-14T16:43:01;98977.03;;;26.25;30.76
77739;BME280;66904;59.926;30.404;2023-03-14T16:48:03;98980.28;;;26.27;31.00
77739;BME280;66904;59.926;30.404;2023-03-14T16:53:04;99002.22;;;26.25;30.92
77739;BME280;66904;59.926;30.404;2023-03-14T16:58:04;99007.91;;;26.24;31.21
77739;BME280;66904;59.926;30.404;2023-03-14T17:03:05;99001.63;;;26.18;31.28
77739;BME280;66904;59.926;30.404;2023-03-14T17:08:05;99023.22;;;26.13;31.19
77739;BME280;66904;59.926;30.404;2023-03-14T17:13:06;99041.34;;;26.07;32.42
77739;BME280;66904;59.926;30.404;2023-03-14T17:18:06;99045.06;;;26.01;32.25
77739;BME280;66904;59.926;30.404;2023-03-14T17:23:07;99045.19;;;25.90;31.84
77739;BME280;66904;59.926;30.404;2023-03-14T17:28:08;99053.31;;;25.90;33.09
77739;BME280;66904;59.926;30.404;2023-03-14T17:33:09;99054.69;;;25.92;33.14
77739;BME280;66904;59.926;30.404;2023-03-14T17:38:10;99056.03;;;26.11;33.52
77739;BME280;66904;59.926;30.404;2023-03-14T17:43:10;99059.00;;;26.37;33.40
77739;BME280;66904;59.926;30.404;2023-03-14T17:48:11;99073.81;;;26.51;32.76
77739;BME280;66904;59.926;30.404;2023-03-14T17:53:12;99075.41;;;26.52;32.14
77739;BME280;66904;59.926;30.404;2023-03-14T17:58:12;99066.41;;;26.46;32.06
77739;BME280;66904;59.926;30.404;2023-03-14T18:03:14;99072.41;;;26.48;31.91
77739;BME280;66904;59.926;30.404;2023-03-14T18:08:15;99083.31;;;26.53;31.99
77739;BME280;66904;59.926;30.404;2023-03-14T18:13:15;99065.56;;;26.41;31.81
77739;BME280;66904;59.926;30.404;2023-03-14T18:18:16;99069.03;;;26.36;31.37
77739;BME280;66904;59.926;30.404;2023-03-14T18:23:17;99077.66;;;26.28;31.28
77739;BME280;66904;59.926;30.404;2023-03-14T18:28:18;99068.91;;;26.21;30.75
77739;BME280;66904;59.926;30.404;2023-03-14T18:33:22;99076.72;;;26.17;30.52
77739;BME280;66904;59.926;30.404;2023-03-14T18:38:23;99070.25;;;26.02;30.66
77739;BME280;66904;59.926;30.404;2023-03-14T18:43:24;99065.88;;;25.74;30.02
77739;BME280;66904;59.926;30.404;2023-03-14T18:48:25;99072.81;;;25.48;30.04
77739;BME280;66904;59.926;30.404;2023-03-14T18:53:27;99063.97;;;25.36;29.83
77739;BME280;66904;59.926;30.404;2023-03-14T18:58:31;99077.47;;;25.31;29.86
77739;BME280;66904;59.926;30.404;2023-03-14T19:03:33;99075.97;;;25.24;29.32
77739;BME280;66904;59.926;30.404;2023-03-14T19:08:35;99078.13;;;25.22;30.07
77739;BME280;66904;59.926;30.404;2023-03-14T19:13:37;99089.47;;;25.18;29.60
77739;BME280;66904;59.926;30.404;2023-03-14T19:18:38;99092.41;;;25.17;29.79
77739;BME280;66904;59.926;30.404;2023-03-14T19:23:41;99079.41;;;25.19;29.52
77739;BME280;66904;59.926;30.404;2023-03-14T19:28:42;99075.44;;;25.22;29.20
77739;BME280;66904;59.926;30.404;2023-03-14T19:33:43;99062.38;;;25.18;29.28
77739;BME280;66904;59.926;30.404;2023-03-14T19:38:44;99067.72;;;25.13;29.33
77739;BME280;66904;59.926;30.404;2023-03-14T19:43:44;99069.28;;;25.09;29.31
77739;BME280;66904;59.926;30.404;2023-03-14T19:48:45;99055.66;;;25.04;29.33
77739;BME280;66904;59.926;30.404;2023-03-14T19:53:45;99065.28;;;25.12;29.32
77739;BME280;66904;59.926;30.404;2023-03-14T19:58:45;99059.50;;;25.25;29.34
77739;BME280;66904;59.926;30.404;2023-03-14T20:03:46;99065.41;;;25.22;29.45
77739;BME280;66904;59.926;30.404;2023-03-14T20:08:46;99049.25;;;25.10;29.35
77739;BME280;66904;59.926;30.404;2023-03-14T20:13:47;99040.25;;;25.05;29.00
77739;BME280;66904;59.926;30.404;2023-03-14T20:18:47;99042.31;;;24.98;29.05
77739;BME280;66904;59.926;30.404;2023-03-14T20:23:48;99029.28;;;24.95;29.20
77739;BME280;66904;59.926;30.404;2023-03-14T20:28:48;99023.69;;;25.01;28.97
77739;BME280;66904;59.926;30.404;2023-03-14T20:33:49;99024.16;;;25.15;29.08
77739;BME280;66904;59.926;30.404;2023-03-14T20:38:51;99025.94;;;25.26;29.21
77739;BME280;66904;59.926;30.404;2023-03-14T20:43:52;99028.78;;;25.36;29.08
77739;BME280;66904;59.926;30.404;2023-03-14T20:48:52;99035.16;;;25.47;29.04
77739;BME280;66904;59.926;30.404;2023-03-14T20:53:53;99036.66;;;25.54;28.98
77739;BME280;66904;59.926;30.404;2023-03-14T20:58:53;99028.66;;;25.64;29.10
77739;BME280;66904;59.926;30.404;2023-03-14T21:03:54;99042.13;;;25.81;29.23
77739;BME280;66904;59.926;30.404;2023-03-14T21:08:54;99039.78;;;25.90;29.27
77739;BME280;66904;59.926;30.404;2023-03-14T21:13:55;99040.16;;;25.98;29.27
77739;BME280;66904;59.926;30.404;2023-03-14T21:18:55;99033.72;;;26.04;29.28
77739;BME280;66904;59.926;30.404;2023-03-14T21:23:56;99028.34;;;26.09;29.17
77739;BME280;66904;59.926;30.404;2023-03-14T21:28:58;99033.25;;;26.12;29.24
77739;BME280;66904;59.926;30.404;2023-03-14T21:33:59;99033.81;;;26.14;29.28
77739;BME280;66904;59.926;30.404;2023-03-14T21:38:59;99030.00;;;26.15;28.98
77739;BME280;66904;59.926;30.404;2023-03-14T21:44:00;99027.91;;;26.17;29.25
77739;BME280;66904;59.926;30.404;2023-03-14T21:49:01;99010.31;;;26.20;28.88
77739;BME280;66904;59.926;30.404;2023-03-14T21:54:03;98999.47;;;26.20;29.23
77739;BME280;66904;59.926;30.404;2023-03-14T21:59:11;99001.13;;;26.21;28.74
77739;BME280;66904;59.926;30.404;2023-03-14T22:04:13;99001.34;;;26.19;28.97
77739;BME280;66904;59.926;30.404;2023-03-14T22:09:14;99003.00;;;26.20;29.08
77739;BME280;66904;59.926;30.404;2023-03-14T22:14:14;98997.59;;;26.20;29.06
77739;BME280;66904;59.926;30.404;2023-03-14T22:19:15;98997.59;;;26.20;29.00
77739;BME280;66904;59.926;30.404;2023-03-14T22:24:15;98992.47;;;26.24;29.00
77739;BME280;66904;59.926;30.404;2023-03-14T22:29:16;98996.56;;;26.27;29.21
77739;BME280;66904;59.926;30.404;2023-03-14T22:34:17;99006.88;;;26.30;29.02
77739;BME280;66904;59.926;30.404;2023-03-14T22:39:17;99011.75;;;26.28;29.24
77739;BME280;66904;59.926;30.404;2023-03-14T22:44:18;99010.88;;;26.22;29.04
77739;BME280;66904;59.926;30.404;2023-03-14T22:49:18;99012.19;;;26.19;29.24
77739;BME280;66904;59.926;30.404;2023-03-14T22:54:19;98994.78;;;26.15;29.05
77739;BME280;66904;59.926;30.404;2023-03-14T22:59:20;98998.00;;;26.12;28.59
77739;BME280;66904;59.926;30.404;2023-03-14T23:04:32;99000.97;;;26.11;28.87
77739;BME280;66904;59.926;30.404;2023-03-14T23:10:16;99001.53;;;26.13;28.81
77739;BME280;66904;59.926;30.404;2023-03-14T23:15:16;99006.09;;;26.07;28.81
77739;BME280;66904;59.926;30.404;2023-03-14T23:20:17;99005.28;;;26.07;28.97
77739;BME280;66904;59.926;30.404;2023-03-14T23:25:23;98996.88;;;26.08;29.05
77739;BME280;66904;59.926;30.404;2023-03-14T23:30:24;98995.50;;;26.06;28.87
77739;BME280;66904;59.926;30.404;2023-03-14T23:35:24;99000.09;;;26.05;28.91
77739;BME280;66904;59.926;30.404;2023-03-14T23:40:25;99004.22;;;26.08;28.63
77739;BME280;66904;59.926;30.404;2023-03-14T23:46:02;99006.41;;;26.11;28.73
77739;BME280;66904;59.926;30.404;2023-03-14T23:51:27;99009.63;;;26.08;28.64
77739;BME280;66904;59.926;30.404;2023-03-14T23:56:27;98998.47;;;26.04;28.69
